sensor_id;sensor_type;location;lat;lon;timestamp;temperature;humidity
50556;DHT22;36508;52.512;13.450;2023-04-06T00:00:32;6.10;99.90
50556;DHT22;36508;52.512;13.450;2023-04-06T00:02:57;6.10;99.90
50556;DHT22;36508;52.512;13.450;2023-04-06T00:05:23;5.80;99.90
50556;DHT22;36508;52.512;13.450;2023-04-06T00:07:49;5.70;99.90
50556;DHT22;36508;52.512;13.450;2023-04-06T00:10:16;5.70;99.90
50556;DHT22;36508;52.512;13.450;2023-04-06T00:12:41;5.80;99.90
50556;DHT22;36508;52.512;13.450;2023-04-06T00:15:07;5.90;99.90
50556;DHT22;36508;52.512;13.450;2023-04-06T00:17:33;5.80;99.90
50556;DHT22;36508;52.512;13.450;2023-04-06T00:19:59;5.90;99.90
50556;DHT22;36508;52.512;13.450;2023-04-06T00:22:25;5.90;99.90
50556;DHT22;36508;52.512;13.450;2023-04-06T00:24:51;6.00;99.90
50556;DHT22;36508;52.512;13.450;2023-04-06T00:27:16;5.90;99.90
50556;DHT22;36508;52.512;13.450;2023-04-06T00:29:43;5.90;99.90
50556;DHT22;36508;52.512;13.450;2023-04-06T00:32:09;5.80;99.90
50556;DHT22;36508;52.512;13.450;2023-04-06T00:34:34;5.80;99.90
50556;DHT22;36508;52.512;13.450;2023-04-06T00:37:00;5.90;99.90
50556;DHT22;36508;52.512;13.450;2023-04-06T00:39:26;5.90;99.90
50556;DHT22;36508;52.512;13.450;2023-04-06T00:41:52;5.90;99.90
50556;DHT22;36508;52.512;13.450;2023-04-06T00:44:19;5.90;99.90
50556;DHT22;36508;52.512;13.450;2023-04-06T00:46:45;5.80;99.90
50556;DHT22;36508;52.512;13.450;2023-04-06T00:49:10;5.80;99.90
50556;DHT22;36508;52.512;13.450;2023-04-06T00:51:36;5.60;99.90
50556;DHT22;36508;52.512;13.450;2023-04-06T00:54:02;5.60;99.90
50556;DHT22;36508;52.512;13.450;2023-04-06T00:56:28;5.50;99.90
50556;DHT22;36508;52.512;13.450;2023-04-06T00:58:53;5.50;99.90
50556;DHT22;36508;52.512;13.450;2023-04-06T01:01:19;5.50;99.90
50556;DHT22;36508;52.512;13.450;2023-04-06T01:03:45;5.40;99.90
50556;DHT22;36508;52.512;13.450;2023-04-06T01:06:14;5.50;99.90
50556;DHT22;36508;52.512;13.450;2023-04-06T01:08:46;5.60;99.90
50556;DHT22;36508;52.512;13.450;2023-04-06T01:11:11;5.40;99.90
50556;DHT22;36508;52.512;13.450;2023-04-06T01:13:37;5.30;99.90
50556;DHT22;36508;52.512;13.450;2023-04-06T01:16:03;5.40;99.90
50556;DHT22;36508;52.512;13.450;2023-04-06T01:18:29;5.40;99.90
50556;DHT22;36508;52.512;13.450;2023-04-06T01:20:55;5.40;99.90
50556;DHT22;36508;52.512;13.450;2023-04-06T01:23:21;5.50;99.90
50556;DHT22;36508;52.512;13.450;2023-04-06T01:25:47;5.50;99.90
50556;DHT22;36508;52.512;13.450;2023-04-06T01:28:12;5.30;99.90
50556;DHT22;36508;52.512;13.450;2023-04-06T01:30:38;5.40;99.90
50556;DHT22;36508;52.512;13.450;2023-04-06T01:33:03;5.40;99.90
50556;DHT22;36508;52.512;13.450;2023-04-06T01:35:30;5.40;99.90
50556;DHT22;36508;52.512;13.450;2023-04-06T01:37:56;5.50;99.90
50556;DHT22;36508;52.512;13.450;2023-04-06T01:40:22;5.50;99.90
50556;DHT22;36508;52.512;13.450;2023-04-06T01:42:47;5.50;99.90
50556;DHT22;36508;52.512;13.450;2023-04-06T01:45:13;5.50;99.90
50556;DHT22;36508;52.512;13.450;2023-04-06T01:47:39;5.40;99.90
50556;DHT22;36508;52.512;13.450;2023-04-06T01:50:05;5.40;99.90
50556;DHT22;36508;52.512;13.450;2023-04-06T01:52:33;5.40;99.90
50556;DHT22;36508;52.512;13.450;2023-04-06T01:54:58;5.30;99.90
50556;DHT22;36508;52.512;13.450;2023-04-06T01:57:24;5.20;99.90
50556;DHT22;36508;52.512;13.450;2023-04-06T01:59:51;5.20;99.90
50556;DHT22;36508;52.512;13.450;2023-04-06T02:02:16;5.20;99.90
50556;DHT22;36508;52.512;13.450;2023-04-06T02:04:42;5.20;99.90
50556;DHT22;36508;52.512;13.450;2023-04-06T02:07:07;5.20;99.90
50556;DHT22;36508;52.512;13.450;2023-04-06T02:09:33;5.10;99.90
50556;DHT22;36508;52.512;13.450;2023-04-06T02:12:02;5.10;99.90
50556;DHT22;36508;52.512;13.450;2023-04-06T02:14:27;5.10;99.90
50556;DHT22;36508;52.512;13.450;2023-04-06T02:16:53;5.10;99.90
50556;DHT22;36508;52.512;13.450;2023-04-06T02:19:19;5.10;99.90
50556;DHT22;36508;52.512;13.450;2023-04-06T02:21:45;5.20;99.90
50556;DHT22;36508;52.512;13.450;2023-04-06T02:24:13;5.30;99.90
50556;DHT22;36508;52.512;13.450;2023-04-06T02:26:39;5.30;99.90
50556;DHT22;36508;52.512;13.450;2023-04-06T02:29:04;5.40;99.90
50556;DHT22;36508;52.512;13.450;2023-04-06T02:31:32;5.40;99.90
50556;DHT22;36508;52.512;13.450;2023-04-06T02:33:57;5.40;99.90
50556;DHT22;36508;52.512;13.450;2023-04-06T02:36:23;5.40;99.90
50556;DHT22;36508;52.512;13.450;2023-04-06T02:38:49;5.40;99.90
50556;DHT22;36508;52.512;13.450;2023-04-06T02:41:14;5.40;99.90
50556;DHT22;36508;52.512;13.450;2023-04-06T02:43:40;5.30;99.90
50556;DHT22;36508;52.512;13.450;2023-04-06T02:46:06;5.30;99.90
50556;DHT22;36508;52.512;13.450;2023-04-06T02:48:31;5.20;99.90
50556;DHT22;36508;52.512;13.450;2023-04-06T02:50:57;5.20;99.90
50556;DHT22;36508;52.512;13.450;2023-04-06T02:53:23;5.20;99.90
50556;DHT22;36508;52.512;13.450;2023-04-06T02:55:48;5.20;99.90
50556;DHT22;36508;52.512;13.450;2023-04-06T02:58:14;5.10;99.90
50556;DHT22;36508;52.512;13.450;2023-04-06T03:00:39;5.10;99.90
50556;DHT22;36508;52.512;13.450;2023-04-06T03:03:05;5.00;99.90
50556;DHT22;36508;52.512;13.450;2023-04-06T03:05:32;4.90;99.90
50556;DHT22;36508;52.512;13.450;2023-04-06T03:07:58;4.80;99.90
50556;DHT22;36508;52.512;13.450;2023-04-06T03:10:24;4.80;99.90
50556;DHT22;36508;52.512;13.450;2023-04-06T03:12:49;4.80;99.90
50556;DHT22;36508;52.512;13.450;2023-04-06T03:15:15;4.80;99.90
50556;DHT22;36508;52.512;13.450;2023-04-06T03:17:41;4.70;99.90
50556;DHT22;36508;52.512;13.450;2023-04-06T03:20:06;4.70;99.90
50556;DHT22;36508;52.512;13.450;2023-04-06T03:22:32;4.70;99.90
50556;DHT22;36508;52.512;13.450;2023-04-06T03:24:58;4.60;99.90
50556;DHT22;36508;52.512;13.450;2023-04-06T03:27:23;4.50;99.90
50556;DHT22;36508;52.512;13.450;2023-04-06T03:29:49;4.40;99.90
50556;DHT22;36508;52.512;13.450;2023-04-06T03:32:15;4.50;99.90
50556;DHT22;36508;52.512;13.450;2023-04-06T03:34:40;4.50;99.90
50556;DHT22;36508;52.512;13.450;2023-04-06T03:37:06;4.50;99.90
50556;DHT22;36508;52.512;13.450;2023-04-06T03:39:31;4.50;99.90
50556;DHT22;36508;52.512;13.450;2023-04-06T03:41:57;4.50;99.90
50556;DHT22;36508;52.512;13.450;2023-04-06T03:44:23;4.40;99.90
50556;DHT22;36508;52.512;13.450;2023-04-06T03:46:48;4.40;99.90
50556;DHT22;36508;52.512;13.450;2023-04-06T03:49:14;4.30;99.90
50556;DHT22;36508;52.512;13.450;2023-04-06T03:51:39;4.30;99.90
50556;DHT22;36508;52.512;13.450;2023-04-06T03:54:05;4.10;99.90
50556;DHT22;36508;52.512;13.450;2023-04-06T03:56:31;3.90;99.90
50556;DHT22;36508;52.512;13.450;2023-04-06T03:58:56;3.70;99.90
50556;DHT22;36508;52.512;13.450;2023-04-06T04:01:22;3.80;99.90
50556;DHT22;36508;52.512;13.450;2023-04-06T04:03:47;3.80;99.90
50556;DHT22;36508;52.512;13.450;2023-04-06T04:06:13;3.90;99.90
50556;DHT22;36508;52.512;13.450;2023-04-06T04:08:39;3.70;99.90
50556;DHT22;36508;52.512;13.450;2023-04-06T04:11:04;3.50;99.90
50556;DHT22;36508;52.512;13.450;2023-04-06T04:13:30;3.60;99.90
50556;DHT22;36508;52.512;13.450;2023-04-06T04:15:55;3.70;99.90
50556;DHT22;36508;52.512;13.450;2023-04-06T04:18:21;3.80;99.90
50556;DHT22;36508;52.512;13.450;2023-04-06T04:20:47;3.80;99.90
50556;DHT22;36508;52.512;13.450;2023-04-06T04:23:12;3.90;99.90
50556;DHT22;36508;52.512;13.450;2023-04-06T04:25:38;4.00;99.90
50556;DHT22;36508;52.512;13.450;2023-04-06T04:28:04;4.00;99.90
50556;DHT22;36508;52.512;13.450;2023-04-06T04:30:29;3.90;99.90
50556;DHT22;36508;52.512;13.450;2023-04-06T04:32:55;4.10;99.90
50556;DHT22;36508;52.512;13.450;2023-04-06T04:35:21;4.00;99.90
50556;DHT22;36508;52.512;13.450;2023-04-06T04:37:46;4.10;99.90
50556;DHT22;36508;52.512;13.450;2023-04-06T04:40:12;4.10;99.90
50556;DHT22;36508;52.512;13.450;2023-04-06T04:42:38;4.10;99.90
50556;DHT22;36508;52.512;13.450;2023-04-06T04:45:04;4.10;99.90
50556;DHT22;36508;52.512;13.450;2023-04-06T04:47:29;4.20;99.90
50556;DHT22;36508;52.512;13.450;2023-04-06T04:49:55;4.20;99.90
50556;DHT22;36508;52.512;13.450;2023-04-06T04:52:21;4.30;99.90
50556;DHT22;36508;52.512;13.450;2023-04-06T04:54:46;4.20;99.90
50556;DHT22;36508;52.512;13.450;2023-04-06T04:57:13;4.20;99.90
50556;DHT22;36508;52.512;13.450;2023-04-06T04:59:38;4.10;99.90
50556;DHT22;36508;52.512;13.450;2023-04-06T05:02:04;4.20;99.90
50556;DHT22;36508;52.512;13.450;2023-04-06T05:04:29;4.10;99.90
50556;DHT22;36508;52.512;13.450;2023-04-06T05:07:06;4.20;99.90
50556;DHT22;36508;52.512;13.450;2023-04-06T05:09:32;4.20;99.90
50556;DHT22;36508;52.512;13.450;2023-04-06T05:12:01;4.20;99.90
50556;DHT22;36508;52.512;13.450;2023-04-06T05:14:27;4.20;99.90
50556;DHT22;36508;52.512;13.450;2023-04-06T05:16:53;4.20;99.90
50556;DHT22;36508;52.512;13.450;2023-04-06T05:19:19;4.20;99.90
50556;DHT22;36508;52.512;13.450;2023-04-06T05:21:45;4.10;99.90
50556;DHT22;36508;52.512;13.450;2023-04-06T05:24:10;4.20;99.90
50556;DHT22;36508;52.512;13.450;2023-04-06T05:26:36;4.20;99.90
50556;DHT22;36508;52.512;13.450;2023-04-06T05:29:02;3.80;99.90
50556;DHT22;36508;52.512;13.450;2023-04-06T05:31:31;3.90;99.90
50556;DHT22;36508;52.512;13.450;2023-04-06T05:33:57;3.90;99.90
50556;DHT22;36508;52.512;13.450;2023-04-06T05:36:22;3.90;99.90
50556;DHT22;36508;52.512;13.450;2023-04-06T05:38:48;4.10;99.90
50556;DHT22;36508;52.512;13.450;2023-04-06T05:41:15;4.00;99.90
50556;DHT22;36508;52.512;13.450;2023-04-06T05:43:41;4.10;99.90
50556;DHT22;36508;52.512;13.450;2023-04-06T05:46:06;4.10;99.90
50556;DHT22;36508;52.512;13.450;2023-04-06T05:48:32;4.20;99.90
50556;DHT22;36508;52.512;13.450;2023-04-06T05:50:58;4.20;99.90
50556;DHT22;36508;52.512;13.450;2023-04-06T05:53:23;4.30;99.90
50556;DHT22;36508;52.512;13.450;2023-04-06T05:55:51;4.40;99.90
50556;DHT22;36508;52.512;13.450;2023-04-06T05:58:17;4.50;99.90
50556;DHT22;36508;52.512;13.450;2023-04-06T06:00:43;4.50;99.90
50556;DHT22;36508;52.512;13.450;2023-04-06T06:03:11;4.50;99.90
50556;DHT22;36508;52.512;13.450;2023-04-06T06:05:37;4.40;99.90
50556;DHT22;36508;52.512;13.450;2023-04-06T06:08:03;4.50;99.90
50556;DHT22;36508;52.512;13.450;2023-04-06T06:10:28;4.50;99.90
50556;DHT22;36508;52.512;13.450;2023-04-06T06:12:54;4.50;99.90
50556;DHT22;36508;52.512;13.450;2023-04-06T06:15:20;4.60;99.90
50556;DHT22;36508;52.512;13.450;2023-04-06T06:17:45;4.50;99.90
50556;DHT22;36508;52.512;13.450;2023-04-06T06:20:11;4.30;99.90
50556;DHT22;36508;52.512;13.450;2023-04-06T06:22:37;4.40;99.90
50556;DHT22;36508;52.512;13.450;2023-04-06T06:25:03;4.40;99.90
50556;DHT22;36508;52.512;13.450;2023-04-06T06:27:28;4.50;99.90
50556;DHT22;36508;52.512;13.450;2023-04-06T06:29:54;4.60;99.90
50556;DHT22;36508;52.512;13.450;2023-04-06T06:32:20;4.60;99.90
50556;DHT22;36508;52.512;13.450;2023-04-06T06:34:46;4.80;99.90
50556;DHT22;36508;52.512;13.450;2023-04-06T06:37:12;5.10;99.90
50556;DHT22;36508;52.512;13.450;2023-04-06T06:39:37;5.50;99.90
50556;DHT22;36508;52.512;13.450;2023-04-06T06:42:03;5.60;99.90
50556;DHT22;36508;52.512;13.450;2023-04-06T06:44:29;5.60;99.90
50556;DHT22;36508;52.512;13.450;2023-04-06T06:46:54;5.50;99.90
50556;DHT22;36508;52.512;13.450;2023-04-06T06:49:20;5.40;99.90
50556;DHT22;36508;52.512;13.450;2023-04-06T06:51:46;5.30;99.90
50556;DHT22;36508;52.512;13.450;2023-04-06T06:54:12;5.20;99.90
50556;DHT22;36508;52.512;13.450;2023-04-06T06:56:38;5.20;99.90
50556;DHT22;36508;52.512;13.450;2023-04-06T06:59:04;5.30;99.90
50556;DHT22;36508;52.512;13.450;2023-04-06T07:01:32;5.40;99.90
50556;DHT22;36508;52.512;13.450;2023-04-06T07:03:58;5.50;99.90
50556;DHT22;36508;52.512;13.450;2023-04-06T07:06:24;5.60;99.90
50556;DHT22;36508;52.512;13.450;2023-04-06T07:08:51;5.60;99.90
50556;DHT22;36508;52.512;13.450;2023-04-06T07:11:17;5.60;99.90
50556;DHT22;36508;52.512;13.450;2023-04-06T07:13:43;5.70;99.90
50556;DHT22;36508;52.512;13.450;2023-04-06T07:16:08;5.70;99.90
50556;DHT22;36508;52.512;13.450;2023-04-06T07:18:34;5.60;99.90
50556;DHT22;36508;52.512;13.450;2023-04-06T07:21:00;5.70;99.90
50556;DHT22;36508;52.512;13.450;2023-04-06T07:23:25;5.80;99.90
50556;DHT22;36508;52.512;13.450;2023-04-06T07:25:51;5.90;99.90
50556;DHT22;36508;52.512;13.450;2023-04-06T07:28:19;6.00;99.90
50556;DHT22;36508;52.512;13.450;2023-04-06T07:30:44;5.90;99.90
50556;DHT22;36508;52.512;13.450;2023-04-06T07:33:10;6.00;99.90
50556;DHT22;36508;52.512;13.450;2023-04-06T07:35:36;6.10;99.90
50556;DHT22;36508;52.512;13.450;2023-04-06T07:38:02;6.30;99.90
50556;DHT22;36508;52.512;13.450;2023-04-06T07:40:28;6.30;99.90
50556;DHT22;36508;52.512;13.450;2023-04-06T07:42:54;6.30;99.90
50556;DHT22;36508;52.512;13.450;2023-04-06T07:45:20;6.40;99.90
50556;DHT22;36508;52.512;13.450;2023-04-06T07:47:46;6.50;99.90
50556;DHT22;36508;52.512;13.450;2023-04-06T07:50:12;6.50;99.90
50556;DHT22;36508;52.512;13.450;2023-04-06T07:52:38;6.60;99.90
50556;DHT22;36508;52.512;13.450;2023-04-06T07:55:05;6.70;99.90
50556;DHT22;36508;52.512;13.450;2023-04-06T07:57:30;6.80;99.90
50556;DHT22;36508;52.512;13.450;2023-04-06T07:59:56;6.90;99.90
50556;DHT22;36508;52.512;13.450;2023-04-06T08:02:22;6.80;99.90
50556;DHT22;36508;52.512;13.450;2023-04-06T08:04:48;6.90;99.90
50556;DHT22;36508;52.512;13.450;2023-04-06T08:07:13;7.00;99.90
50556;DHT22;36508;52.512;13.450;2023-04-06T08:09:39;6.90;99.90
50556;DHT22;36508;52.512;13.450;2023-04-06T08:12:05;7.00;99.90
50556;DHT22;36508;52.512;13.450;2023-04-06T08:14:31;7.10;99.90
50556;DHT22;36508;52.512;13.450;2023-04-06T08:16:56;7.20;99.90
50556;DHT22;36508;52.512;13.450;2023-04-06T08:19:22;7.30;99.90
50556;DHT22;36508;52.512;13.450;2023-04-06T08:21:48;7.40;99.90
50556;DHT22;36508;52.512;13.450;2023-04-06T08:24:14;7.40;99.90
50556;DHT22;36508;52.512;13.450;2023-04-06T08:26:40;7.30;99.90
50556;DHT22;36508;52.512;13.450;2023-04-06T08:29:06;7.30;99.90
50556;DHT22;36508;52.512;13.450;2023-04-06T08:31:35;7.40;99.90
50556;DHT22;36508;52.512;13.450;2023-04-06T08:34:01;7.50;99.90
50556;DHT22;36508;52.512;13.450;2023-04-06T08:36:27;7.50;99.90
50556;DHT22;36508;52.512;13.450;2023-04-06T08:38:53;7.60;99.90
50556;DHT22;36508;52.512;13.450;2023-04-06T08:41:19;7.60;99.90
50556;DHT22;36508;52.512;13.450;2023-04-06T08:43:54;7.60;99.90
50556;DHT22;36508;52.512;13.450;2023-04-06T08:46:21;7.70;99.90
50556;DHT22;36508;52.512;13.450;2023-04-06T08:48:47;7.80;99.90
50556;DHT22;36508;52.512;13.450;2023-04-06T08:51:17;8.00;99.90
50556;DHT22;36508;52.512;13.450;2023-04-06T08:53:44;8.10;99.90
50556;DHT22;36508;52.512;13.450;2023-04-06T08:56:13;8.30;99.90
50556;DHT22;36508;52.512;13.450;2023-04-06T08:58:39;8.30;99.90
50556;DHT22;36508;52.512;13.450;2023-04-06T09:01:11;8.30;99.90
50556;DHT22;36508;52.512;13.450;2023-04-06T09:03:39;8.30;99.90
50556;DHT22;36508;52.512;13.450;2023-04-06T09:06:06;8.30;99.90
50556;DHT22;36508;52.512;13.450;2023-04-06T09:08:33;8.40;99.90
50556;DHT22;36508;52.512;13.450;2023-04-06T09:11:01;8.50;99.90
50556;DHT22;36508;52.512;13.450;2023-04-06T09:13:27;8.60;99.90
50556;DHT22;36508;52.512;13.450;2023-04-06T09:16:03;8.70;99.90
50556;DHT22;36508;52.512;13.450;2023-04-06T09:18:30;8.80;99.90
50556;DHT22;36508;52.512;13.450;2023-04-06T09:21:01;8.80;99.90
50556;DHT22;36508;52.512;13.450;2023-04-06T09:23:27;8.80;99.90
50556;DHT22;36508;52.512;13.450;2023-04-06T09:26:19;8.90;99.90
50556;DHT22;36508;52.512;13.450;2023-04-06T09:28:53;8.90;99.90
50556;DHT22;36508;52.512;13.450;2023-04-06T09:33:49;8.90;99.90
50556;DHT22;36508;52.512;13.450;2023-04-06T09:36:15;9.10;99.90
50556;DHT22;36508;52.512;13.450;2023-04-06T09:38:59;9.10;99.90
50556;DHT22;36508;52.512;13.450;2023-04-06T09:41:27;9.20;99.90
50556;DHT22;36508;52.512;13.450;2023-04-06T09:44:09;9.30;99.90
50556;DHT22;36508;52.512;13.450;2023-04-06T09:49:06;9.50;99.90
50556;DHT22;36508;52.512;13.450;2023-04-06T09:51:46;9.60;98.30
50556;DHT22;36508;52.512;13.450;2023-04-06T09:54:18;9.70;96.90
50556;DHT22;36508;52.512;13.450;2023-04-06T10:02:00;9.90;94.90
50556;DHT22;36508;52.512;13.450;2023-04-06T10:07:05;10.20;95.90
50556;DHT22;36508;52.512;13.450;2023-04-06T10:09:32;10.40;94.30
50556;DHT22;36508;52.512;13.450;2023-04-06T10:12:10;10.60;93.40
50556;DHT22;36508;52.512;13.450;2023-04-06T10:14:38;10.60;92.40
50556;DHT22;36508;52.512;13.450;2023-04-06T10:17:04;10.70;91.70
50556;DHT22;36508;52.512;13.450;2023-04-06T10:23:09;10.80;91.00
50556;DHT22;36508;52.512;13.450;2023-04-06T10:25:09;10.90;91.50
50556;DHT22;36508;52.512;13.450;2023-04-06T10:27:34;11.10;92.30
50556;DHT22;36508;52.512;13.450;2023-04-06T10:30:05;11.40;91.80
50556;DHT22;36508;52.512;13.450;2023-04-06T10:32:38;11.70;91.10
50556;DHT22;36508;52.512;13.450;2023-04-06T10:35:11;12.50;85.40
50556;DHT22;36508;52.512;13.450;2023-04-06T10:37:53;15.90;84.30
50556;DHT22;36508;52.512;13.450;2023-04-06T10:40:23;19.40;69.80
50556;DHT22;36508;52.512;13.450;2023-04-06T10:42:51;19.00;56.70
50556;DHT22;36508;52.512;13.450;2023-04-06T10:45:22;17.90;57.00
50556;DHT22;36508;52.512;13.450;2023-04-06T10:47:48;19.50;55.50
50556;DHT22;36508;52.512;13.450;2023-04-06T10:50:15;22.00;52.80
50556;DHT22;36508;52.512;13.450;2023-04-06T10:55:13;23.60;48.60
50556;DHT22;36508;52.512;13.450;2023-04-06T10:57:39;21.90;44.80
50556;DHT22;36508;52.512;13.450;2023-04-06T11:00:05;20.60;45.20
50556;DHT22;36508;52.512;13.450;2023-04-06T11:02:31;22.10;45.70
50556;DHT22;36508;52.512;13.450;2023-04-06T11:17:33;24.30;44.70
50556;DHT22;36508;52.512;13.450;2023-04-06T11:19:59;26.70;37.00
50556;DHT22;36508;52.512;13.450;2023-04-06T11:22:26;24.70;37.90
50556;DHT22;36508;52.512;13.450;2023-04-06T11:24:52;25.20;38.00
50556;DHT22;36508;52.512;13.450;2023-04-06T11:27:19;25.80;35.90
50556;DHT22;36508;52.512;13.450;2023-04-06T11:29:46;27.80;35.70
50556;DHT22;36508;52.512;13.450;2023-04-06T11:32:20;28.90;34.90
50556;DHT22;36508;52.512;13.450;2023-04-06T11:34:47;28.20;34.10
50556;DHT22;36508;52.512;13.450;2023-04-06T11:37:14;29.30;33.50
50556;DHT22;36508;52.512;13.450;2023-04-06T11:39:50;29.80;31.90
50556;DHT22;36508;52.512;13.450;2023-04-06T11:42:26;29.80;31.70
50556;DHT22;36508;52.512;13.450;2023-04-06T11:44:59;29.20;31.70
50556;DHT22;36508;52.512;13.450;2023-04-06T11:48:00;25.70;31.00
50556;DHT22;36508;52.512;13.450;2023-04-06T11:50:32;26.70;34.40
50556;DHT22;36508;52.512;13.450;2023-04-06T11:53:02;28.70;32.50
50556;DHT22;36508;52.512;13.450;2023-04-06T11:55:37;29.40;31.40
50556;DHT22;36508;52.512;13.450;2023-04-06T11:58:03;29.40;31.00
50556;DHT22;36508;52.512;13.450;2023-04-06T12:00:29;27.80;30.70
50556;DHT22;36508;52.512;13.450;2023-04-06T12:02:59;24.50;31.60
50556;DHT22;36508;52.512;13.450;2023-04-06T12:05:26;24.50;33.40
50556;DHT22;36508;52.512;13.450;2023-04-06T12:07:52;24.10;33.50
50556;DHT22;36508;52.512;13.450;2023-04-06T12:10:18;25.00;34.70
50556;DHT22;36508;52.512;13.450;2023-04-06T12:12:43;25.90;34.50
50556;DHT22;36508;52.512;13.450;2023-04-06T12:15:09;26.40;34.00
50556;DHT22;36508;52.512;13.450;2023-04-06T12:17:35;27.40;33.60
50556;DHT22;36508;52.512;13.450;2023-04-06T12:20:01;28.50;32.80
50556;DHT22;36508;52.512;13.450;2023-04-06T12:22:28;27.50;30.60
50556;DHT22;36508;52.512;13.450;2023-04-06T12:24:54;26.50;31.70
50556;DHT22;36508;52.512;13.450;2023-04-06T12:27:19;27.20;32.20
50556;DHT22;36508;52.512;13.450;2023-04-06T12:29:46;28.20;31.50
50556;DHT22;36508;52.512;13.450;2023-04-06T12:32:12;28.50;30.80
50556;DHT22;36508;52.512;13.450;2023-04-06T12:34:38;29.10;31.00
50556;DHT22;36508;52.512;13.450;2023-04-06T12:37:04;28.80;30.10
50556;DHT22;36508;52.512;13.450;2023-04-06T12:39:30;26.60;30.80
50556;DHT22;36508;52.512;13.450;2023-04-06T12:41:56;24.20;32.20
50556;DHT22;36508;52.512;13.450;2023-04-06T12:44:22;22.60;33.30
50556;DHT22;36508;52.512;13.450;2023-04-06T12:46:48;21.70;34.80
50556;DHT22;36508;52.512;13.450;2023-04-06T12:49:15;22.60;35.90
50556;DHT22;36508;52.512;13.450;2023-04-06T12:51:42;23.00;34.70
50556;DHT22;36508;52.512;13.450;2023-04-06T12:54:08;22.00;35.70
50556;DHT22;36508;52.512;13.450;2023-04-06T12:56:34;22.70;35.10
50556;DHT22;36508;52.512;13.450;2023-04-06T12:59:00;22.60;36.10
50556;DHT22;36508;52.512;13.450;2023-04-06T13:01:26;25.00;35.10
50556;DHT22;36508;52.512;13.450;2023-04-06T13:03:53;25.90;34.30
50556;DHT22;36508;52.512;13.450;2023-04-06T13:06:21;26.60;33.50
50556;DHT22;36508;52.512;13.450;2023-04-06T13:08:47;26.10;33.40
50556;DHT22;36508;52.512;13.450;2023-04-06T13:11:15;26.20;33.70
50556;DHT22;36508;52.512;13.450;2023-04-06T13:13:40;25.90;33.30
50556;DHT22;36508;52.512;13.450;2023-04-06T13:16:09;25.90;33.70
50556;DHT22;36508;52.512;13.450;2023-04-06T13:18:36;26.30;33.60
50556;DHT22;36508;52.512;13.450;2023-04-06T13:21:06;26.20;33.70
50556;DHT22;36508;52.512;13.450;2023-04-06T13:23:33;25.60;33.20
50556;DHT22;36508;52.512;13.450;2023-04-06T13:26:00;24.90;34.30
50556;DHT22;36508;52.512;13.450;2023-04-06T13:28:26;23.50;34.20
50556;DHT22;36508;52.512;13.450;2023-04-06T13:30:53;21.40;35.20
50556;DHT22;36508;52.512;13.450;2023-04-06T13:33:19;20.50;36.00
50556;DHT22;36508;52.512;13.450;2023-04-06T13:35:45;20.60;37.00
50556;DHT22;36508;52.512;13.450;2023-04-06T13:38:11;21.00;36.80
50556;DHT22;36508;52.512;13.450;2023-04-06T13:40:39;21.90;36.70
50556;DHT22;36508;52.512;13.450;2023-04-06T13:43:06;23.30;35.50
50556;DHT22;36508;52.512;13.450;2023-04-06T13:45:32;24.00;35.40
50556;DHT22;36508;52.512;13.450;2023-04-06T13:48:03;24.80;35.40
50556;DHT22;36508;52.512;13.450;2023-04-06T13:50:29;25.40;34.80
50556;DHT22;36508;52.512;13.450;2023-04-06T13:52:55;26.60;33.70
50556;DHT22;36508;52.512;13.450;2023-04-06T13:55:21;26.60;33.60
50556;DHT22;36508;52.512;13.450;2023-04-06T13:57:49;25.70;33.70
50556;DHT22;36508;52.512;13.450;2023-04-06T14:00:15;24.40;34.10
50556;DHT22;36508;52.512;13.450;2023-04-06T14:02:41;22.70;34.50
50556;DHT22;36508;52.512;13.450;2023-04-06T14:05:10;22.00;36.00
50556;DHT22;36508;52.512;13.450;2023-04-06T14:07:39;21.90;35.90
50556;DHT22;36508;52.512;13.450;2023-04-06T14:10:06;21.40;36.20
50556;DHT22;36508;52.512;13.450;2023-04-06T14:12:42;21.30;36.00
50556;DHT22;36508;52.512;13.450;2023-04-06T14:15:11;22.60;36.30
50556;DHT22;36508;52.512;13.450;2023-04-06T14:17:37;23.50;35.30
50556;DHT22;36508;52.512;13.450;2023-04-06T14:20:09;24.30;34.90
50556;DHT22;36508;52.512;13.450;2023-04-06T14:22:40;24.50;34.60
50556;DHT22;36508;52.512;13.450;2023-04-06T14:25:06;24.70;33.90
50556;DHT22;36508;52.512;13.450;2023-04-06T14:27:32;23.70;34.80
50556;DHT22;36508;52.512;13.450;2023-04-06T14:29:58;23.80;35.10
50556;DHT22;36508;52.512;13.450;2023-04-06T14:32:23;24.40;34.10
50556;DHT22;36508;52.512;13.450;2023-04-06T14:34:50;25.10;34.80
50556;DHT22;36508;52.512;13.450;2023-04-06T14:37:18;23.90;33.40
50556;DHT22;36508;52.512;13.450;2023-04-06T14:39:45;22.90;34.60
50556;DHT22;36508;52.512;13.450;2023-04-06T14:42:14;21.70;34.60
50556;DHT22;36508;52.512;13.450;2023-04-06T14:44:46;22.30;35.20
50556;DHT22;36508;52.512;13.450;2023-04-06T14:47:20;21.30;35.10
50556;DHT22;36508;52.512;13.450;2023-04-06T14:49:49;21.10;36.00
50556;DHT22;36508;52.512;13.450;2023-04-06T14:52:36;21.10;35.50
50556;DHT22;36508;52.512;13.450;2023-04-06T14:55:02;19.80;36.20
50556;DHT22;36508;52.512;13.450;2023-04-06T14:57:29;19.20;37.50
50556;DHT22;36508;52.512;13.450;2023-04-06T14:59:54;18.50;36.90
50556;DHT22;36508;52.512;13.450;2023-04-06T15:02:20;18.00;38.00
50556;DHT22;36508;52.512;13.450;2023-04-06T15:04:53;18.20;38.40
50556;DHT22;36508;52.512;13.450;2023-04-06T15:07:19;17.90;38.30
50556;DHT22;36508;52.512;13.450;2023-04-06T15:09:44;17.60;38.70
50556;DHT22;36508;52.512;13.450;2023-04-06T15:12:10;17.60;38.80
50556;DHT22;36508;52.512;13.450;2023-04-06T15:14:35;18.50;38.50
50556;DHT22;36508;52.512;13.450;2023-04-06T15:17:01;19.30;38.40
50556;DHT22;36508;52.512;13.450;2023-04-06T15:19:27;20.10;37.20
50556;DHT22;36508;52.512;13.450;2023-04-06T15:21:52;19.40;36.80
50556;DHT22;36508;52.512;13.450;2023-04-06T15:24:18;19.40;37.60
50556;DHT22;36508;52.512;13.450;2023-04-06T15:26:44;20.20;37.70
50556;DHT22;36508;52.512;13.450;2023-04-06T15:29:11;20.70;36.70
50556;DHT22;36508;52.512;13.450;2023-04-06T15:31:37;20.70;36.80
50556;DHT22;36508;52.512;13.450;2023-04-06T15:34:24;20.90;37.10
50556;DHT22;36508;52.512;13.450;2023-04-06T15:36:50;20.70;37.00
50556;DHT22;36508;52.512;13.450;2023-04-06T15:39:19;21.30;36.50
50556;DHT22;36508;52.512;13.450;2023-04-06T15:41:44;21.80;35.70
50556;DHT22;36508;52.512;13.450;2023-04-06T15:44:10;21.60;36.40
50556;DHT22;36508;52.512;13.450;2023-04-06T15:46:36;21.70;36.20
50556;DHT22;36508;52.512;13.450;2023-04-06T15:49:04;22.40;35.90
50556;DHT22;36508;52.512;13.450;2023-04-06T15:51:32;22.00;35.30
50556;DHT22;36508;52.512;13.450;2023-04-06T15:53:58;22.10;35.70